createdAt,value
2019-03-05T00:01:17.288Z,8.47
2019-03-05T00:03:45.112Z,5.67
2019-03-05T00:06:14.074Z,5.93
2019-03-05T00:08:42.263Z,4.13
2019-03-05T00:11:10.801Z,4.43
2019-03-05T00:13:38.595Z,5.60
2019-03-05T00:16:06.398Z,5.27
2019-03-05T00:18:34.135Z,4.60
2019-03-05T00:21:01.746Z,4.77
2019-03-05T00:23:48.146Z,5.30
2019-03-05T00:26:18.052Z,5.50
2019-03-05T00:29:10.301Z,4.97
2019-03-05T00:31:38.287Z,5.00
2019-03-05T00:34:45.151Z,3.97
2019-03-05T00:37:28.564Z,4.47
2019-03-05T00:40:13.765Z,5.73
2019-03-05T00:43:24.186Z,4.87
2019-03-05T00:46:35.025Z,4.07
2019-03-05T00:49:43.152Z,4.00
2019-03-05T00:52:54.961Z,4.47
2019-03-05T00:55:42.330Z,3.50
2019-03-05T00:58:46.932Z,5.27
2019-03-05T01:01:38.242Z,3.53
2019-03-05T01:04:39.949Z,4.90
2019-03-05T01:07:08.846Z,5.83
2019-03-05T01:09:36.554Z,3.83
2019-03-05T01:12:05.543Z,4.13
2019-03-05T01:14:34.239Z,3.10
2019-03-05T01:17:06.007Z,4.23
2019-03-05T01:19:33.693Z,5.93
2019-03-05T01:22:01.575Z,3.53
2019-03-05T01:24:29.218Z,2.87
2019-03-05T01:26:57.171Z,4.77
2019-03-05T01:29:25.158Z,4.73
2019-03-05T01:32:12.514Z,3.27
2019-03-05T01:34:46.229Z,5.50
2019-03-05T01:37:16.679Z,3.40
2019-03-05T01:40:07.139Z,4.10
2019-03-05T01:42:35.096Z,3.70
2019-03-05T01:45:03.796Z,5.43
2019-03-05T01:47:31.755Z,4.50
2019-03-05T01:49:59.635Z,4.23
2019-03-05T01:52:28.012Z,3.53
2019-03-05T01:54:56.359Z,2.97
2019-03-05T01:57:24.135Z,1.77
2019-03-05T02:00:04.150Z,3.63
2019-03-05T02:02:32.156Z,3.37
2019-03-05T02:04:59.832Z,4.40
2019-03-05T02:07:27.609Z,5.57
2019-03-05T02:09:55.854Z,6.40
2019-03-05T02:12:23.525Z,3.17
2019-03-05T02:14:51.508Z,2.67
2019-03-05T02:17:25.497Z,4.60
2019-03-05T02:19:53.159Z,1.80
2019-03-05T02:22:35.703Z,3.40
2019-03-05T02:25:19.163Z,3.23
2019-03-05T02:28:02.588Z,3.30
2019-03-05T02:31:09.044Z,5.33
2019-03-05T02:33:45.293Z,2.70
2019-03-05T02:36:23.202Z,3.37
2019-03-05T02:39:26.932Z,3.07
2019-03-05T02:42:29.804Z,5.90
2019-03-05T02:45:34.958Z,3.60
2019-03-05T02:48:33.834Z,3.43
2019-03-05T02:51:45.307Z,1.97
2019-03-05T02:54:46.469Z,2.30
2019-03-05T02:57:13.134Z,3.40
2019-03-05T02:59:40.946Z,4.33
2019-03-05T03:02:26.999Z,4.70
2019-03-05T03:05:16.395Z,7.53
2019-03-05T03:07:55.182Z,1.70
2019-03-05T03:10:33.014Z,4.67
2019-03-05T03:13:00.795Z,6.07
2019-03-05T03:15:28.421Z,7.03
2019-03-05T03:18:03.253Z,3.40
2019-03-05T03:20:30.979Z,3.73
2019-03-05T03:22:58.632Z,3.30
2019-03-05T03:25:26.372Z,2.87
2019-03-05T03:27:54.219Z,7.13
2019-03-05T03:30:23.511Z,5.30
2019-03-05T03:32:51.488Z,3.37
2019-03-05T03:35:19.111Z,4.67
2019-03-05T03:37:46.912Z,5.17
2019-03-05T03:40:16.812Z,5.87
2019-03-05T03:42:44.483Z,6.80
2019-03-05T03:45:14.282Z,10.60
2019-03-05T03:47:43.284Z,6.80
2019-03-05T03:50:11.020Z,10.70
2019-03-05T03:52:38.664Z,10.83
2019-03-05T03:55:06.953Z,8.63
2019-03-05T03:57:34.649Z,8.30
2019-03-05T04:00:09.439Z,6.57
2019-03-05T04:02:37.175Z,6.00
2019-03-05T04:05:05.208Z,8.80
2019-03-05T04:07:33.050Z,5.70
2019-03-05T04:10:00.722Z,4.00
2019-03-05T04:12:28.379Z,2.97
2019-03-05T04:14:56.069Z,1.37
2019-03-05T04:17:24.375Z,1.13
2019-03-05T04:19:52.118Z,3.03
2019-03-05T04:22:22.059Z,4.27
2019-03-05T04:24:49.942Z,2.97
2019-03-05T04:27:17.579Z,2.67
2019-03-05T04:29:48.320Z,6.00
2019-03-05T04:32:16.045Z,5.67
2019-03-05T04:34:44.819Z,5.33
2019-03-05T04:37:12.434Z,6.33
2019-03-05T04:39:40.646Z,5.40
2019-03-05T04:42:08.274Z,7.57
2019-03-05T04:44:59.760Z,5.93
2019-03-05T04:47:27.442Z,8.30
2019-03-05T04:50:32.469Z,4.03
2019-03-05T04:53:21.392Z,4.93
2019-03-05T04:56:07.461Z,5.03
2019-03-05T04:58:44.839Z,10.40
2019-03-05T05:01:14.363Z,5.27
2019-03-05T05:03:42.000Z,6.30
2019-03-05T05:06:25.553Z,8.30
2019-03-05T05:08:56.462Z,8.87
2019-03-05T05:11:24.164Z,8.03
2019-03-05T05:13:54.652Z,9.53
2019-03-05T05:16:24.603Z,6.97
2019-03-05T05:18:52.342Z,8.37
2019-03-05T05:21:20.300Z,9.37
2019-03-05T05:23:49.172Z,11.20
2019-03-05T05:26:17.856Z,6.70
2019-03-05T05:28:45.896Z,9.17
2019-03-05T05:31:13.560Z,9.13
2019-03-05T05:33:41.425Z,7.30
2019-03-05T05:36:28.471Z,7.90
2019-03-05T05:39:09.462Z,6.87
2019-03-05T05:41:37.833Z,7.83
2019-03-05T05:44:05.656Z,6.90
2019-03-05T05:46:37.959Z,9.97
2019-03-05T05:49:05.699Z,8.17
2019-03-05T05:51:44.873Z,9.27
2019-03-05T05:54:14.228Z,7.73
2019-03-05T05:56:41.933Z,8.43
2019-03-05T05:59:10.617Z,8.87
2019-03-05T06:01:39.388Z,9.00
2019-03-05T06:04:08.751Z,5.77
2019-03-05T06:06:36.320Z,8.23
2019-03-05T06:09:06.974Z,10.93
2019-03-05T06:11:39.714Z,8.13
2019-03-05T06:14:09.055Z,7.70
2019-03-05T06:16:36.695Z,6.77
2019-03-05T06:19:07.487Z,11.20
2019-03-05T06:21:36.112Z,8.43
2019-03-05T06:24:04.799Z,5.43
2019-03-05T06:26:33.981Z,6.80
2019-03-05T06:29:02.548Z,6.20
2019-03-05T06:31:30.339Z,6.63
2019-03-05T06:34:10.676Z,8.77
2019-03-05T06:37:19.078Z,6.70
2019-03-05T06:39:47.190Z,5.27
2019-03-05T06:42:14.955Z,7.87
2019-03-05T06:44:42.669Z,4.57
2019-03-05T06:47:12.667Z,7.20
2019-03-05T06:49:40.522Z,7.30
2019-03-05T06:52:08.315Z,5.10
2019-03-05T06:54:36.151Z,6.30
2019-03-05T06:57:05.073Z,4.17
2019-03-05T06:59:33.408Z,7.37
2019-03-05T07:02:02.852Z,5.77
2019-03-05T07:04:30.524Z,8.37
2019-03-05T07:06:58.474Z,5.50
2019-03-05T07:10:01.398Z,5.57
2019-03-05T07:13:11.086Z,7.30
2019-03-05T07:16:08.806Z,4.93
2019-03-05T07:19:22.166Z,4.80
2019-03-05T07:22:31.465Z,6.43
2019-03-05T07:25:10.409Z,6.13
2019-03-05T07:27:46.166Z,6.60
2019-03-05T07:30:24.481Z,5.93
2019-03-05T07:32:53.325Z,6.00
2019-03-05T07:35:26.040Z,5.03
2019-03-05T07:37:53.695Z,3.83
2019-03-05T07:40:22.530Z,7.10
2019-03-05T07:42:53.475Z,4.57
2019-03-05T07:45:25.321Z,5.63
2019-03-05T07:47:53.267Z,2.50
2019-03-05T07:50:23.785Z,9.37
2019-03-05T07:53:02.228Z,6.13
2019-03-05T07:55:21.489Z,9.23
2019-03-05T07:58:15.456Z,7.17
2019-03-05T08:00:52.082Z,7.37
2019-03-05T08:03:23.832Z,5.73
2019-03-05T08:06:01.645Z,4.23
2019-03-05T08:09:06.797Z,4.07
2019-03-05T08:11:53.169Z,21.10
2019-03-05T08:14:48.323Z,9.73
2019-03-05T08:17:37.984Z,3.03
2019-03-05T08:20:34.280Z,4.50
2019-03-05T08:23:01.837Z,4.30
2019-03-05T08:25:55.650Z,7.20
2019-03-05T08:28:20.626Z,7.67
2019-03-05T08:31:20.514Z,7.67
2019-03-05T08:34:09.354Z,10.33
2019-03-05T08:36:52.794Z,4.07
2019-03-05T08:39:35.311Z,6.20
2019-03-05T08:42:07.162Z,8.03
2019-03-05T08:44:37.285Z,3.80
2019-03-05T08:47:08.078Z,5.77
2019-03-05T08:49:37.572Z,6.43
2019-03-05T08:52:05.663Z,3.70
2019-03-05T08:54:42.120Z,7.33
2019-03-05T08:57:09.766Z,1.90
2019-03-05T08:59:51.366Z,2.40
2019-03-05T09:02:48.989Z,10.10
2019-03-05T09:05:18.207Z,5.00
2019-03-05T09:08:01.962Z,5.00
2019-03-05T09:10:47.604Z,4.60
2019-03-05T09:13:32.687Z,9.03
2019-03-05T09:16:01.383Z,4.77
2019-03-05T09:18:31.475Z,6.70
2019-03-05T09:21:06.740Z,6.07
2019-03-05T09:23:34.526Z,5.23
2019-03-05T09:26:04.612Z,6.53
2019-03-05T09:28:32.820Z,3.83
2019-03-05T09:31:00.591Z,6.63
2019-03-05T09:33:28.219Z,5.70
2019-03-05T09:36:04.583Z,8.00
2019-03-05T09:38:34.045Z,4.00
2019-03-05T09:41:29.481Z,3.20
2019-03-05T09:44:12.394Z,3.77
2019-03-05T09:46:52.908Z,6.30
2019-03-05T09:49:31.401Z,4.60
2019-03-05T09:52:25.081Z,4.03
2019-03-05T09:55:06.788Z,6.67
2019-03-05T09:57:47.553Z,10.57
2019-03-05T10:00:17.574Z,6.90
2019-03-05T10:02:45.700Z,16.47
2019-03-05T10:05:14.211Z,5.90
2019-03-05T10:07:44.744Z,6.00
2019-03-05T10:10:22.824Z,5.67
2019-03-05T10:12:50.511Z,5.27
2019-03-05T10:15:32.786Z,5.97
2019-03-05T10:18:12.670Z,7.00
2019-03-05T10:20:47.761Z,19.47
2019-03-05T10:23:35.170Z,7.00
2019-03-05T10:26:18.355Z,4.60
2019-03-05T10:28:49.621Z,2.60
2019-03-05T10:31:29.091Z,6.27
2019-03-05T10:34:05.968Z,3.47
2019-03-05T10:36:51.129Z,4.47
2019-03-05T10:39:49.570Z,3.30
2019-03-05T10:42:21.015Z,5.77
2019-03-05T10:44:49.647Z,2.17
2019-03-05T10:47:22.521Z,3.93
2019-03-05T10:50:16.435Z,13.97
2019-03-05T10:53:04.720Z,5.77
2019-03-05T10:55:34.284Z,6.03
2019-03-05T10:58:02.216Z,5.33
2019-03-05T11:00:34.175Z,6.33
2019-03-05T11:03:03.439Z,5.90
2019-03-05T11:05:36.374Z,4.57
2019-03-05T11:08:07.584Z,3.37
2019-03-05T11:10:41.282Z,8.10
2019-03-05T11:13:11.750Z,2.77
2019-03-05T11:15:41.992Z,3.00
2019-03-05T11:18:29.462Z,4.87
2019-03-05T11:21:04.816Z,4.40
2019-03-05T11:23:56.738Z,4.40
2019-03-05T11:26:25.153Z,5.47
2019-03-05T11:28:56.430Z,3.23
2019-03-05T11:31:36.124Z,7.43
2019-03-05T11:34:05.352Z,3.20
2019-03-05T11:36:33.562Z,3.77
2019-03-05T11:39:02.303Z,5.73
2019-03-05T11:41:30.474Z,6.70
2019-03-05T11:44:01.119Z,4.57
2019-03-05T11:46:42.030Z,3.97
2019-03-05T11:49:26.107Z,4.07
2019-03-05T11:52:07.212Z,5.00
2019-03-05T11:54:52.267Z,4.53
2019-03-05T11:57:21.348Z,7.47
2019-03-05T11:59:49.579Z,2.90
2019-03-05T12:02:26.869Z,3.37
2019-03-05T12:04:55.777Z,3.03
2019-03-05T12:07:36.572Z,5.00
2019-03-05T12:10:23.891Z,2.97
2019-03-05T12:13:04.336Z,3.43
2019-03-05T12:15:36.888Z,5.30
2019-03-05T12:18:04.817Z,4.47
2019-03-05T12:20:33.115Z,3.80
2019-03-05T12:23:02.320Z,4.07
2019-03-05T12:25:35.928Z,4.93
2019-03-05T12:28:26.352Z,6.03
2019-03-05T12:31:25.958Z,4.17
2019-03-05T12:34:13.940Z,2.03
2019-03-05T12:36:47.752Z,2.00
2019-03-05T12:39:31.096Z,4.07
2019-03-05T12:42:28.234Z,2.50
2019-03-05T12:45:11.999Z,1.60
2019-03-05T12:47:47.466Z,1.43
2019-03-05T12:50:35.398Z,1.00
2019-03-05T12:53:09.526Z,3.53
2019-03-05T12:55:37.635Z,5.07
2019-03-05T12:58:12.824Z,1.07
2019-03-05T13:00:45.342Z,1.77
2019-03-05T13:03:13.913Z,1.17
2019-03-05T13:05:50.066Z,3.30
2019-03-05T13:08:38.885Z,3.53
2019-03-05T13:11:24.130Z,2.17
2019-03-05T13:14:05.668Z,2.20
2019-03-05T13:16:48.707Z,3.20
2019-03-05T13:19:23.601Z,2.77
2019-03-05T13:21:56.883Z,2.57
2019-03-05T13:24:33.426Z,1.30
2019-03-05T13:27:13.394Z,3.20
2019-03-05T13:29:41.206Z,1.20
2019-03-05T13:32:09.199Z,2.27
2019-03-05T13:34:46.065Z,1.30
2019-03-05T13:37:28.445Z,1.50
2019-03-05T13:40:04.653Z,1.30
2019-03-05T13:42:34.952Z,2.53
2019-03-05T13:45:05.309Z,1.30
2019-03-05T13:47:37.207Z,2.20
2019-03-05T13:50:48.786Z,2.43
2019-03-05T13:53:45.027Z,3.27
2019-03-05T13:56:53.722Z,4.63
2019-03-05T13:59:56.423Z,2.30
2019-03-05T14:02:31.782Z,2.77
2019-03-05T14:05:24.307Z,2.03
2019-03-05T14:08:41.758Z,2.03
2019-03-05T14:11:29.066Z,2.30
2019-03-05T14:14:01.081Z,1.50
2019-03-05T14:16:55.889Z,3.10
2019-03-05T14:19:39.084Z,2.97
2019-03-05T14:22:07.094Z,1.87
2019-03-05T14:24:35.275Z,2.73
2019-03-05T14:27:04.866Z,2.70
2019-03-05T14:29:33.777Z,1.97
2019-03-05T14:32:03.698Z,2.00
2019-03-05T14:34:44.081Z,1.97
2019-03-05T14:37:20.341Z,3.30
2019-03-05T14:39:49.230Z,2.07
2019-03-05T14:42:20.263Z,2.10
2019-03-05T14:44:47.994Z,2.90
2019-03-05T14:47:16.213Z,5.77
2019-03-05T14:49:43.938Z,1.97
2019-03-05T14:52:26.543Z,1.50
2019-03-05T14:55:06.601Z,2.40
2019-03-05T14:57:57.076Z,3.43
2019-03-05T15:00:39.902Z,2.83
2019-03-05T15:03:07.928Z,3.37
2019-03-05T15:05:37.243Z,1.20
2019-03-05T15:08:20.294Z,1.40
2019-03-05T15:11:02.521Z,1.77
2019-03-05T15:13:36.633Z,1.10
2019-03-05T15:16:04.203Z,1.03
2019-03-05T15:18:42.909Z,1.37
2019-03-05T15:21:37.281Z,1.45
2019-03-05T15:24:15.011Z,2.03
2019-03-05T15:26:54.166Z,1.30
2019-03-05T15:29:22.771Z,2.93
2019-03-05T15:31:53.438Z,1.17
2019-03-05T15:34:21.169Z,23.27
2019-03-05T15:37:04.796Z,5.30
2019-03-05T15:39:49.357Z,16.83
2019-03-05T15:42:32.128Z,4.60
2019-03-05T15:45:19.105Z,2.17
2019-03-05T15:47:47.262Z,2.37
2019-03-05T15:50:18.261Z,1.20
2019-03-05T15:52:49.460Z,2.73
2019-03-05T15:55:24.088Z,1.73
2019-03-05T15:58:12.341Z,1.90
2019-03-05T16:01:04.247Z,1.90
2019-03-05T16:03:54.664Z,1.90
2019-03-05T16:06:22.880Z,2.60
2019-03-05T16:08:53.566Z,2.97
2019-03-05T16:11:21.335Z,1.67
2019-03-05T16:13:56.537Z,3.57
2019-03-05T16:16:43.228Z,1.40
2019-03-05T16:19:27.871Z,2.90
2019-03-05T16:22:14.286Z,3.50
2019-03-05T16:25:09.897Z,2.77
2019-03-05T16:37:57.779Z,2.67
2019-03-05T16:40:40.993Z,4.73
2019-03-05T16:43:29.767Z,3.20
2019-03-05T16:46:34.005Z,4.30
2019-03-05T16:49:26.101Z,8.23
2019-03-05T16:52:10.656Z,3.60
2019-03-05T16:55:11.092Z,4.37
2019-03-05T16:58:03.140Z,4.47
2019-03-05T17:01:07.688Z,4.13
2019-03-05T17:03:53.629Z,16.93
2019-03-05T17:06:42.834Z,2.77
2019-03-05T17:09:34.709Z,4.13
2019-03-05T17:12:04.044Z,4.63
2019-03-05T17:14:34.802Z,3.67
2019-03-05T17:17:13.528Z,3.67
2019-03-05T17:19:44.086Z,3.10
2019-03-05T17:22:13.794Z,3.80
2019-03-05T17:24:45.521Z,2.87
2019-03-05T17:27:41.421Z,4.07
2019-03-05T17:30:14.442Z,2.17
2019-03-05T17:32:52.177Z,3.17
2019-03-05T17:35:20.314Z,2.33
2019-03-05T17:37:49.239Z,3.53
2019-03-05T17:40:17.067Z,2.50
2019-03-05T17:42:50.647Z,2.70
2019-03-05T17:45:20.151Z,2.87
2019-03-05T17:47:47.967Z,4.90
2019-03-05T17:50:30.964Z,2.83
2019-03-05T17:53:00.457Z,4.33
2019-03-05T17:55:34.595Z,11.27
2019-03-05T17:58:11.079Z,4.60
2019-03-05T18:00:43.794Z,3.53
2019-03-05T18:03:24.038Z,4.10
2019-03-05T18:06:20.192Z,2.97
2019-03-05T18:09:03.550Z,5.67
2019-03-05T18:11:45.550Z,5.20
2019-03-05T18:14:38.593Z,5.70
2019-03-05T18:17:41.023Z,4.63
2019-03-05T18:20:23.485Z,7.37
2019-03-05T18:22:54.787Z,6.37
2019-03-05T18:25:29.929Z,6.70
2019-03-05T18:28:08.091Z,7.23
2019-03-05T18:30:36.331Z,4.40
2019-03-05T18:33:09.277Z,6.03
2019-03-05T18:35:37.512Z,5.80
2019-03-05T18:38:06.822Z,7.40
2019-03-05T18:40:37.632Z,4.73
2019-03-05T18:43:22.202Z,6.73
2019-03-05T18:46:09.338Z,5.17
2019-03-05T18:48:48.265Z,7.90
2019-03-05T18:51:18.309Z,6.30
2019-03-05T18:53:46.299Z,7.43
2019-03-05T18:56:18.437Z,6.27
2019-03-05T18:58:53.728Z,6.93
2019-03-05T19:01:28.215Z,5.63
2019-03-05T19:04:21.427Z,7.00
2019-03-05T19:07:01.080Z,8.33
2019-03-05T19:09:34.582Z,13.37
2019-03-05T19:12:08.627Z,8.97
2019-03-05T19:14:42.443Z,9.80
2019-03-05T19:17:28.396Z,8.07
2019-03-05T19:20:10.544Z,7.97
2019-03-05T19:22:48.199Z,4.87
2019-03-05T19:25:37.195Z,6.33
2019-03-05T19:28:14.233Z,6.97
2019-03-05T19:30:53.448Z,7.17
2019-03-05T19:33:23.690Z,8.33
2019-03-05T19:36:24.343Z,10.87
2019-03-05T19:38:58.624Z,8.47
2019-03-05T19:41:33.290Z,8.90
2019-03-05T19:44:17.076Z,9.10
2019-03-05T19:47:08.375Z,8.70
2019-03-05T19:49:40.566Z,11.73
2019-03-05T19:52:09.018Z,9.27
2019-03-05T19:54:56.108Z,11.97
2019-03-05T19:57:30.670Z,9.27
2019-03-05T19:59:58.691Z,9.70
2019-03-05T20:02:27.830Z,10.07
2019-03-05T20:05:03.960Z,10.40
2019-03-05T20:07:49.195Z,9.47
2019-03-05T20:10:21.328Z,11.10
2019-03-05T20:12:49.275Z,10.53
2019-03-05T20:15:21.906Z,10.40
2019-03-05T20:17:58.690Z,10.30
2019-03-05T20:20:31.787Z,10.03
2019-03-05T20:23:01.247Z,9.13
2019-03-05T20:25:45.556Z,9.80
2019-03-05T20:28:13.704Z,10.77
2019-03-05T20:30:59.454Z,9.33
2019-03-05T20:33:36.759Z,11.07
2019-03-05T20:36:09.219Z,8.77
2019-03-05T20:38:47.242Z,11.63
2019-03-05T20:41:15.476Z,7.40
2019-03-05T20:43:46.033Z,9.30
2019-03-05T20:46:22.918Z,9.00
2019-03-05T20:48:51.754Z,12.27
2019-03-05T20:51:22.517Z,8.63
2019-03-05T20:53:51.237Z,9.10
2019-03-05T20:56:24.632Z,14.90
2019-03-05T20:59:03.861Z,7.60
2019-03-05T21:01:34.185Z,10.37
2019-03-05T21:04:04.409Z,12.63
2019-03-05T21:06:34.818Z,12.00
2019-03-05T21:09:20.773Z,10.97
2019-03-05T21:11:56.834Z,13.97
2019-03-05T21:14:35.224Z,20.70
2019-03-05T21:17:19.228Z,14.43
2019-03-05T21:19:55.218Z,11.83
2019-03-05T21:22:23.349Z,9.97
2019-03-05T21:24:51.716Z,13.70
2019-03-05T21:27:19.859Z,10.93
2019-03-05T21:29:52.430Z,13.67
2019-03-05T21:32:24.139Z,12.63
2019-03-05T21:35:00.326Z,12.57
2019-03-05T21:37:28.196Z,14.23
2019-03-05T21:39:59.645Z,15.83
2019-03-05T21:42:28.480Z,13.60
2019-03-05T21:44:56.325Z,13.77
2019-03-05T21:47:29.127Z,13.70
2019-03-05T21:50:00.782Z,13.20
2019-03-05T21:52:32.071Z,12.90
2019-03-05T21:55:04.305Z,13.77
2019-03-05T21:57:35.703Z,15.20
2019-03-05T22:00:04.954Z,17.53
2019-03-05T22:02:33.447Z,18.70
2019-03-05T22:05:06.272Z,18.17
2019-03-05T22:07:37.343Z,21.10
2019-03-05T22:10:06.108Z,23.47
2019-03-05T22:12:36.815Z,22.17
2019-03-05T22:15:12.553Z,19.57
2019-03-05T22:17:40.441Z,16.13
2019-03-05T22:20:20.758Z,23.20
2019-03-05T22:22:50.427Z,20.93
2019-03-05T22:25:18.889Z,21.93
2019-03-05T22:27:47.128Z,15.80
2019-03-05T22:30:22.432Z,18.50
2019-03-05T22:32:52.043Z,15.77
2019-03-05T22:35:19.797Z,17.33
2019-03-05T22:37:48.895Z,18.90
2019-03-05T22:40:22.144Z,16.83
2019-03-05T22:42:50.482Z,18.93
2019-03-05T22:45:22.824Z,18.43
2019-03-05T22:47:51.856Z,21.87
2019-03-05T22:50:20.282Z,23.40
2019-03-05T22:52:51.516Z,22.20
2019-03-05T22:55:19.608Z,20.90
2019-03-05T22:57:47.404Z,19.97
2019-03-05T23:00:55.330Z,17.80
2019-03-05T23:03:23.595Z,20.00
2019-03-05T23:05:51.521Z,19.70
2019-03-05T23:08:27.692Z,20.03
2019-03-05T23:11:08.273Z,20.47
2019-03-05T23:13:40.058Z,19.27
2019-03-05T23:16:08.261Z,19.23
2019-03-05T23:18:38.590Z,18.93
2019-03-05T23:21:07.705Z,18.50
2019-03-05T23:23:35.435Z,19.47
2019-03-05T23:26:03.534Z,20.77
2019-03-05T23:28:34.808Z,17.60
2019-03-05T23:31:02.483Z,28.30
2019-03-05T23:33:31.788Z,23.20
2019-03-05T23:36:00.669Z,22.87
2019-03-05T23:38:28.552Z,18.70
2019-03-05T23:40:56.330Z,20.53
2019-03-05T23:43:24.166Z,21.47
2019-03-05T23:45:54.639Z,19.00
2019-03-05T23:48:22.332Z,19.63
2019-03-05T23:50:50.747Z,20.73
2019-03-05T23:53:24.480Z,23.37
2019-03-05T23:55:52.307Z,22.97
2019-03-05T23:58:23.214Z,21.20
